createdAt,value
2023-02-20T00:15:06.850Z,12824
2023-02-20T00:45:06.983Z,14145
2023-02-20T01:15:08.912Z,7634
2023-02-20T01:45:10.840Z,10697
2023-02-20T02:21:00.335Z,12056
2023-02-20T02:51:04.028Z,12534
2023-02-20T03:21:05.685Z,20023
2023-02-20T03:51:06.383Z,15412
2023-02-20T04:21:07.454Z,20073
2023-02-20T04:51:08.315Z,21389
2023-02-20T05:21:09.391Z,23833
2023-02-20T05:51:11.261Z,22968
2023-02-20T06:21:11.536Z,21867
2023-02-20T06:51:13.065Z,22908
2023-02-20T07:21:14.198Z,26850
2023-02-20T07:51:14.809Z,32133
2023-02-20T08:21:15.090Z,26323
2023-02-20T08:51:16.083Z,13345
2023-02-20T09:21:18.822Z,1580
2023-02-20T09:51:19.841Z,1421
2023-02-20T10:21:20.644Z,849
2023-02-20T10:51:22.670Z,600
2023-02-20T13:46:05.542Z,609
2023-02-20T14:16:06.939Z,977
2023-02-20T14:46:08.731Z,2092
2023-02-20T15:16:09.579Z,2841
2023-02-20T15:50:45.168Z,5085
2023-02-20T16:20:46.072Z,4412
2023-02-20T17:06:55.870Z,1129
2023-02-20T17:36:57.366Z,1574
2023-02-20T18:06:57.725Z,10903
2023-02-20T18:36:59.378Z,5446
2023-02-20T19:07:01.439Z,21184
2023-02-20T19:37:02.799Z,14283
2023-02-20T20:07:04.024Z,23613
2023-02-20T20:37:04.344Z,25422
2023-02-20T21:07:04.515Z,37575
2023-02-20T21:37:06.383Z,37040
2023-02-20T22:07:06.590Z,34456
2023-02-20T22:37:08.153Z,24886
2023-02-20T23:07:09.228Z,27504
2023-02-20T23:37:09.409Z,26721
